Time;durP1;ratioP1;P1;durP2;ratioP2;P2;SDS_P1;SDS_P2;PMS_P1;PMS_P2;Temp;Humidity;BMP_temperature;BMP_pressure;BME280_temperature;BME280_humidity;BME280_pressure;Samples;Min_cycle;Max_cycle;Signal;HPM_P1;HPM_P2
2021/10/31 00:00:31;;;;;;;22.92;14.95;;;;;;;8.95;90.60;101304.09;5043727;28;20037;-69
2021/10/31 00:02:57;;;;;;;21.30;16.10;;;;;;;8.84;90.84;101298.34;5033525;28;20018;-69
2021/10/31 00:05:22;;;;;;;19.27;14.30;;;;;;;8.57;91.06;101245.38;5050778;28;20029;-69
2021/10/31 00:07:48;;;;;;;20.30;15.20;;;;;;;8.95;91.82;101286.97;5051701;28;20056;-69
2021/10/31 00:10:15;;;;;;;23.17;14.52;;;;;;;8.44;92.12;101201.69;5051604;28;20025;-68
2021/10/31 00:12:41;;;;;;;21.67;15.18;;;;;;;8.89;92.81;101276.31;5051386;28;20440;-68
2021/10/31 00:15:06;;;;;;;21.50;14.98;;;;;;;8.87;93.22;101281.38;5051524;28;20082;-68
2021/10/31 00:17:32;;;;;;;22.10;15.02;;;;;;;8.83;93.61;101283.69;5051470;28;20399;-68
2021/10/31 00:19:57;;;;;;;25.45;19.25;;;;;;;8.65;93.93;101276.69;5049436;28;20020;-68
2021/10/31 00:22:23;;;;;;;22.35;16.95;;;;;;;8.32;94.96;101280.72;5051506;28;20021;-68
2021/10/31 00:24:48;;;;;;;24.52;17.02;;;;;;;8.12;96.45;101282.97;5051203;28;20024;-68
2021/10/31 00:27:14;;;;;;;28.25;22.17;;;;;;;8.19;96.47;101277.41;5051104;28;20017;-68
2021/10/31 00:29:39;;;;;;;25.75;17.35;;;;;;;8.25;96.17;101271.75;5051398;28;20560;-68
2021/10/31 00:32:05;;;;;;;21.23;15.52;;;;;;;8.12;96.52;101271.81;5038310;28;20040;-68
2021/10/31 00:34:31;;;;;;;22.90;16.00;;;;;;;7.91;97.25;101275.78;5034986;28;20108;-70
2021/10/31 00:36:57;;;;;;;22.00;15.90;;;;;;;7.72;97.41;101258.31;5031504;28;20028;-70
2021/10/31 00:39:22;;;;;;;23.92;15.82;;;;;;;7.67;97.70;101257.16;5047397;28;20021;-69
2021/10/31 00:41:48;;;;;;;24.95;15.82;;;;;;;7.65;97.45;101251.06;5051758;28;20078;-69
2021/10/31 00:44:13;;;;;;;24.10;17.08;;;;;;;7.77;97.85;101271.47;5051742;28;20075;-68
2021/10/31 00:46:39;;;;;;;22.50;16.63;;;;;;;7.78;97.94;101271.53;5051706;28;20466;-67
2021/10/31 00:49:04;;;;;;;23.88;17.23;;;;;;;7.83;98.24;101266.69;5051727;28;20039;-68
2021/10/31 00:51:30;;;;;;;25.15;17.30;;;;;;;7.55;97.82;101205.91;5051637;28;20047;-68
2021/10/31 00:53:58;;;;;;;28.67;17.75;;;;;;;7.90;98.05;101260.22;5052117;28;20060;-68
2021/10/31 00:56:24;;;;;;;24.17;17.50;;;;;;;7.45;97.36;101162.44;5050922;28;20123;-68
2021/10/31 00:58:51;;;;;;;23.95;17.88;;;;;;;7.93;97.56;101263.00;5051862;28;20029;-68
2021/10/31 01:01:17;;;;;;;22.88;17.70;;;;;;;8.15;97.08;101264.28;5051490;28;20052;-68
2021/10/31 01:03:42;;;;;;;22.75;17.08;;;;;;;8.29;95.87;101263.41;5051639;28;20033;-68
2021/10/31 01:06:21;;;;;;;23.92;17.52;;;;;;;8.50;95.63;101260.34;5051372;28;20037;-68
2021/10/31 01:08:58;;;;;;;23.60;16.40;;;;;;;8.31;95.77;101225.81;5049567;28;20041;-68
2021/10/31 01:11:36;;;;;;;24.45;16.90;;;;;;;8.50;95.56;101253.53;5048612;28;20116;-68
2021/10/31 01:14:22;;;;;;;23.58;17.02;;;;;;;8.42;95.49;101226.41;5035631;28;20018;-68
2021/10/31 01:17:13;;;;;;;25.02;17.23;;;;;;;8.70;95.13;101246.94;5031546;28;20033;-68
2021/10/31 01:19:53;;;;;;;23.65;16.58;;;;;;;8.85;94.30;101244.34;5031582;28;20039;-69
2021/10/31 01:23:01;;;;;;;24.40;16.48;;;;;;;8.48;93.80;101159.03;5031047;28;20033;-70
2021/10/31 01:25:43;;;;;;;21.90;15.93;;;;;;;8.03;94.20;101092.16;5030966;28;20083;-68
2021/10/31 01:28:40;;;;;;;26.75;17.00;;;;;;;8.94;94.50;101240.53;5031080;28;20104;-67
2021/10/31 01:31:23;;;;;;;24.15;16.70;;;;;;;8.90;95.51;101244.63;5030958;28;20478;-70
2021/10/31 01:33:51;;;;;;;22.30;15.80;;;;;;;7.73;97.81;101080.19;5031408;28;20026;-68
2021/10/31 01:36:24;;;;;;;24.25;16.83;;;;;;;8.61;97.50;101254.16;5031274;28;20506;-67
2021/10/31 01:39:21;;;;;;;23.50;17.50;;;;;;;8.63;97.92;101236.22;5031268;28;20025;-68
2021/10/31 01:41:47;;;;;;;25.50;17.08;;;;;;;8.71;97.08;101238.44;5031121;28;20032;-68
2021/10/31 01:44:44;;;;;;;25.02;17.42;;;;;;;8.83;96.28;101238.22;5030759;28;20033;-69
2021/10/31 01:47:22;;;;;;;27.38;17.60;;;;;;;9.03;95.42;101228.16;4989328;28;20042;-69
2021/10/31 01:50:11;;;;;;;23.90;17.92;;;;;;;9.11;94.99;101221.75;4991450;28;20090;-69
2021/10/31 01:52:49;;;;;;;23.08;17.60;;;;;;;9.19;95.06;101233.34;4988790;28;20109;-69
2021/10/31 01:55:30;;;;;;;23.58;17.67;;;;;;;9.20;94.32;101223.94;4979706;28;20455;-70
2021/10/31 01:57:57;;;;;;;23.20;16.55;;;;;;;9.38;93.63;101232.66;4995953;28;20065;-70
2021/10/31 02:00:24;;;;;;;24.08;17.27;;;;;;;9.39;94.11;101233.53;4995786;28;20471;-69
2021/10/31 02:02:50;;;;;;;23.48;16.33;;;;;;;9.36;93.87;101229.13;4995619;28;20038;-69
2021/10/31 02:05:20;;;;;;;21.30;15.93;;;;;;;9.39;93.96;101224.13;4995384;28;20428;-69
2021/10/31 02:07:52;;;;;;;22.88;16.30;;;;;;;9.15;93.59;101169.56;4999411;28;20133;-69
2021/10/31 02:10:19;;;;;;;25.10;17.00;;;;;;;9.61;93.92;101234.69;5015330;28;20419;-69
2021/10/31 02:12:46;;;;;;;21.60;16.52;;;;;;;9.65;93.13;101231.47;5015369;28;20480;-69
2021/10/31 02:15:15;;;;;;;24.92;16.30;;;;;;;9.58;92.94;101213.91;4998586;28;20061;-69
2021/10/31 02:17:41;;;;;;;21.13;16.30;;;;;;;9.47;92.47;101193.63;5014924;28;20427;-69
2021/10/31 02:20:08;;;;;;;23.17;16.88;;;;;;;9.70;92.58;101215.44;5015244;28;20041;-70
2021/10/31 02:22:35;;;;;;;21.42;16.60;;;;;;;9.84;92.33;101230.75;5032630;28;20048;-69
2021/10/31 02:25:02;;;;;;;22.05;15.68;;;;;;;9.90;92.71;101232.78;5057283;28;20047;-69
2021/10/31 02:27:35;;;;;;;22.10;15.52;;;;;;;9.90;92.19;101233.66;5056981;28;20044;-69
2021/10/31 02:30:03;;;;;;;22.35;17.27;;;;;;;9.91;91.49;101227.69;5021913;28;20494;-70
2021/10/31 02:32:31;;;;;;;23.45;16.38;;;;;;;9.97;91.82;101235.75;5057083;28;20025;-70
2021/10/31 02:34:58;;;;;;;23.88;15.82;;;;;;;9.96;91.63;101225.34;5057236;28;20064;-70
2021/10/31 02:37:25;;;;;;;23.08;16.67;;;;;;;9.91;92.03;101230.25;5056996;28;20025;-70
2021/10/31 02:39:50;;;;;;;22.70;17.20;;;;;;;9.88;92.62;101233.56;5057148;28;20031;-70
2021/10/31 02:42:16;;;;;;;20.52;15.68;;;;;;;9.69;92.89;101198.22;5057018;28;20100;-69
2021/10/31 02:44:42;;;;;;;19.50;15.48;;;;;;;9.32;92.75;101143.81;5056755;28;20021;-69
2021/10/31 02:47:14;;;;;;;21.88;16.35;;;;;;;9.59;92.71;101202.81;5057446;28;20475;-69
2021/10/31 02:49:40;;;;;;;19.73;15.40;;;;;;;9.69;93.20;101218.84;5056820;28;20498;-69
2021/10/31 02:52:15;;;;;;;21.85;16.27;;;;;;;9.68;92.99;101223.91;5057090;28;20029;-69
2021/10/31 02:55:02;;;;;;;20.40;15.48;;;;;;;9.15;93.54;101146.41;5057333;28;20083;-69
2021/10/31 02:57:42;;;;;;;22.10;15.55;;;;;;;9.41;93.38;101197.53;5057269;28;20097;-70
2021/10/31 03:00:12;;;;;;;22.80;15.55;;;;;;;9.43;95.19;101225.16;5054414;28;20064;-70
2021/10/31 03:02:39;;;;;;;23.02;16.13;;;;;;;9.45;94.14;101222.69;5054138;28;20031;-70
2021/10/31 03:05:04;;;;;;;18.88;15.55;;;;;;;9.12;95.14;101202.91;5053480;28;20027;-70
2021/10/31 03:07:30;;;;;;;23.30;16.92;;;;;;;9.01;96.81;101216.88;5053342;28;20029;-69
2021/10/31 03:09:55;;;;;;;21.05;15.88;;;;;;;8.83;96.39;101188.44;5053810;28;20029;-70
2021/10/31 03:12:21;;;;;;;21.65;16.10;;;;;;;9.07;96.73;101219.78;5054030;28;20033;-70
2021/10/31 03:14:47;;;;;;;23.13;17.05;;;;;;;9.09;96.39;101212.16;5053213;28;20032;-69
2021/10/31 03:17:12;;;;;;;20.88;16.52;;;;;;;8.96;95.48;101196.03;5053793;28;20112;-70
2021/10/31 03:19:38;;;;;;;24.08;16.55;;;;;;;9.12;95.10;101217.47;5053662;28;20540;-69
2021/10/31 03:22:07;;;;;;;22.63;16.30;;;;;;;9.13;95.64;101221.81;5053570;28;20031;-70
2021/10/31 03:24:33;;;;;;;23.73;15.50;;;;;;;8.63;95.15;101128.13;5055142;28;20108;-68
2021/10/31 03:26:59;;;;;;;23.38;16.38;;;;;;;9.17;94.63;101219.50;5073892;28;20025;-69
2021/10/31 03:29:25;;;;;;;22.35;16.67;;;;;;;9.21;94.26;101208.56;5073702;28;20102;-69
2021/10/31 03:31:54;;;;;;;21.00;14.60;;;;;;;9.33;94.08;101220.31;5073775;28;20406;-69
2021/10/31 03:34:20;;;;;;;23.40;16.42;;;;;;;9.33;93.60;101216.06;5073329;28;20024;-69
2021/10/31 03:36:47;;;;;;;21.23;15.95;;;;;;;9.40;93.40;101219.84;5073415;28;20486;-69
2021/10/31 03:39:12;;;;;;;19.77;15.38;;;;;;;9.16;93.00;101160.16;5074004;28;20393;-69
2021/10/31 03:41:38;;;;;;;22.30;15.73;;;;;;;9.29;93.54;101164.28;5073457;28;20028;-69
2021/10/31 03:47:27;;;;;;;21.10;15.55;;;;;;;9.73;92.56;101219.84;5159661;22;20115;-68
2021/10/31 03:49:52;;;;;;;24.83;16.02;;;;;;;9.10;92.26;101114.34;5053524;28;20025;-68
2021/10/31 03:52:18;;;;;;;20.35;15.63;;;;;;;9.52;92.74;101202.47;5034712;28;20513;-69
2021/10/31 03:54:44;;;;;;;23.58;16.15;;;;;;;9.66;92.86;101210.06;5053271;28;20064;-68
2021/10/31 03:57:09;;;;;;;23.40;15.77;;;;;;;9.70;93.64;101218.00;5053274;28;20033;-68
2021/10/31 03:59:35;;;;;;;23.45;16.17;;;;;;;9.64;93.49;101217.69;5017774;28;20497;-68
2021/10/31 04:02:02;;;;;;;24.10;16.38;;;;;;;9.64;93.25;101219.41;5061586;28;20028;-68
2021/10/31 04:04:28;;;;;;;20.85;15.68;;;;;;;9.28;92.89;101157.34;5072942;28;20545;-68
2021/10/31 04:06:53;;;;;;;19.45;15.13;;;;;;;9.65;92.93;101208.28;5073000;28;20176;-68
2021/10/31 04:09:19;;;;;;;20.95;15.38;;;;;;;9.65;93.85;101211.72;5072884;28;20028;-68
2021/10/31 04:11:44;;;;;;;23.50;16.95;;;;;;;9.62;93.55;101221.00;5072706;28;20531;-68
2021/10/31 04:14:10;;;;;;;21.45;15.77;;;;;;;9.64;94.13;101209.09;5072847;28;20035;-69
2021/10/31 04:16:35;;;;;;;23.70;17.33;;;;;;;9.14;94.98;101154.91;5072908;28;20040;-69
2021/10/31 04:19:01;;;;;;;30.48;19.77;;;;;;;9.39;95.87;101213.84;5072922;28;20028;-69
2021/10/31 04:21:26;;;;;;;28.65;19.08;;;;;;;9.32;95.90;101205.66;5072787;28;20028;-69
2021/10/31 04:23:52;;;;;;;24.98;18.40;;;;;;;9.44;95.88;101215.75;5072676;28;20051;-69
2021/10/31 04:26:17;;;;;;;32.85;18.95;;;;;;;9.49;96.00;101209.16;5072632;28;20024;-69
2021/10/31 04:28:43;;;;;;;31.80;21.35;;;;;;;9.06;96.54;101138.19;5072623;28;20052;-69
2021/10/31 04:31:08;;;;;;;29.67;20.38;;;;;;;9.27;96.54;101176.19;5072663;28;20035;-69
2021/10/31 04:33:36;;;;;;;30.17;20.40;;;;;;;9.35;96.89;101205.84;5072712;28;20036;-69
2021/10/31 04:36:02;;;;;;;33.83;20.10;;;;;;;9.36;96.78;101207.63;5072341;28;20039;-69
2021/10/31 04:38:30;;;;;;;30.02;19.08;;;;;;;8.93;96.15;101125.44;5072407;28;20032;-69
2021/10/31 04:40:56;;;;;;;30.85;19.05;;;;;;;9.25;96.16;101170.97;5072308;28;20029;-69
2021/10/31 04:43:24;;;;;;;29.02;20.17;;;;;;;9.22;97.40;101183.66;5072070;28;20037;-69
2021/10/31 04:45:50;;;;;;;30.23;20.13;;;;;;;9.07;98.16;101178.56;5072336;28;20127;-69
2021/10/31 04:48:15;;;;;;;29.13;19.85;;;;;;;9.13;98.00;101184.06;5072159;28;20063;-69
2021/10/31 04:50:41;;;;;;;29.83;20.17;;;;;;;9.23;97.52;101186.34;5072159;28;20455;-69
2021/10/31 04:53:08;;;;;;;34.28;22.40;;;;;;;9.29;97.02;101180.63;5072060;28;20039;-69
2021/10/31 04:55:35;;;;;;;30.23;21.08;;;;;;;9.26;96.68;101177.00;5071908;28;20104;-70
2021/10/31 04:58:01;;;;;;;24.80;20.17;;;;;;;9.23;97.66;101176.03;5071881;28;20033;-70
2021/10/31 05:00:27;;;;;;;26.52;18.60;;;;;;;9.22;97.21;101187.16;5072298;28;20448;-69
2021/10/31 05:02:52;;;;;;;28.88;19.80;;;;;;;8.67;98.08;101120.66;5072171;28;20170;-70
2021/10/31 05:05:19;;;;;;;26.63;19.13;;;;;;;8.39;98.32;101110.47;5020041;28;20049;-70
2021/10/31 05:07:46;;;;;;;27.83;19.08;;;;;;;8.55;98.35;101100.25;5071933;28;20035;-69
2021/10/31 05:10:12;;;;;;;27.40;18.73;;;;;;;9.12;98.03;101186.56;5071629;28;20028;-70
2021/10/31 05:12:38;;;;;;;27.58;18.63;;;;;;;9.21;97.42;101190.53;5056534;28;20073;-70
2021/10/31 05:15:04;;;;;;;36.00;27.42;;;;;;;9.31;97.96;101191.00;5051655;28;20037;-70
2021/10/31 05:17:31;;;;;;;49.95;32.58;;;;;;;9.33;97.93;101189.41;5051696;28;20029;-70
2021/10/31 05:19:57;;;;;;;34.47;23.85;;;;;;;9.26;98.06;101183.06;5051701;28;20060;-70
2021/10/31 05:22:22;;;;;;;22.85;17.48;;;;;;;9.31;97.65;101194.50;5051549;28;20060;-70
2021/10/31 05:24:48;;;;;;;20.55;15.88;;;;;;;9.28;97.30;101194.31;5050951;28;20071;-70
2021/10/31 05:27:13;;;;;;;23.55;16.35;;;;;;;9.29;97.81;101198.66;5051267;28;20040;-70
2021/10/31 05:29:39;;;;;;;21.40;16.88;;;;;;;9.38;98.19;101187.97;5051557;28;20032;-70
2021/10/31 05:32:04;;;;;;;22.42;16.67;;;;;;;9.42;97.58;101173.53;5051438;28;20032;-69
2021/10/31 05:34:30;;;;;;;24.85;18.17;;;;;;;9.06;96.96;101097.84;5051501;28;20032;-70
2021/10/31 05:36:55;;;;;;;31.05;22.45;;;;;;;9.41;96.69;101154.63;5051353;28;20025;-70
2021/10/31 05:39:21;;;;;;;30.65;20.13;;;;;;;9.47;98.02;101180.72;5051327;28;20021;-70
2021/10/31 05:41:46;;;;;;;26.58;19.02;;;;;;;8.88;99.12;101105.50;5049404;28;20064;-69
2021/10/31 05:44:11;;;;;;;25.20;18.23;;;;;;;9.05;100.00;101175.03;5051308;28;20091;-69
2021/10/31 05:46:38;;;;;;;27.40;17.33;;;;;;;9.01;100.00;101165.34;5061065;28;20110;-70
2021/10/31 05:49:03;;;;;;;26.95;17.10;;;;;;;9.18;99.83;101176.59;5070995;28;20038;-69
2021/10/31 05:51:30;;;;;;;22.30;16.65;;;;;;;9.32;99.43;101185.06;5071241;28;20123;-70
2021/10/31 05:53:56;;;;;;;23.75;16.95;;;;;;;9.16;99.61;101163.63;5071195;28;20025;-69
2021/10/31 05:56:22;;;;;;;20.77;16.35;;;;;;;9.27;98.68;101191.66;5071192;28;20033;-70
2021/10/31 05:58:48;;;;;;;26.13;17.05;;;;;;;8.82;98.55;101089.72;5071002;28;20414;-69
2021/10/31 06:01:13;;;;;;;22.48;16.50;;;;;;;9.28;99.05;101183.13;5071624;28;20039;-70
2021/10/31 06:03:40;;;;;;;21.92;16.13;;;;;;;9.26;97.87;101166.69;5071404;28;20031;-70
2021/10/31 06:06:05;;;;;;;21.58;16.80;;;;;;;8.61;97.87;101044.78;5071112;28;20024;-68
2021/10/31 06:08:31;;;;;;;26.65;18.67;;;;;;;9.42;97.69;101178.69;5076226;28;20080;-70
2021/10/31 06:10:56;;;;;;;23.27;18.27;;;;;;;9.57;98.05;101191.50;5073035;28;20028;-68
2021/10/31 06:13:22;;;;;;;26.17;17.42;;;;;;;9.68;98.23;101187.78;5091295;28;20029;-68
2021/10/31 06:15:48;;;;;;;23.67;17.48;;;;;;;9.17;97.55;101082.06;5090891;28;20028;-69
2021/10/31 06:18:17;;;;;;;23.35;17.48;;;;;;;9.65;96.63;101147.28;5091332;28;20107;-69
2021/10/31 06:20:44;;;;;;;24.77;18.40;;;;;;;9.65;96.74;101170.47;5055172;28;20044;-68
2021/10/31 06:23:09;;;;;;;25.88;17.10;;;;;;;9.75;96.59;101177.00;5090961;28;20024;-68
2021/10/31 06:25:35;;;;;;;22.48;16.27;;;;;;;9.43;96.21;101114.34;5091007;28;20035;-68
2021/10/31 06:28:00;;;;;;;25.23;16.80;;;;;;;9.58;95.81;101131.41;5091211;28;20025;-68
2021/10/31 06:30:26;;;;;;;22.63;15.35;;;;;;;10.12;95.21;101188.28;5091178;28;20496;-68
2021/10/31 06:32:51;;;;;;;21.23;15.50;;;;;;;10.20;94.27;101177.59;5091030;28;20497;-69
2021/10/31 06:35:37;;;;;;;16.92;13.43;;;;;;;10.24;93.32;101194.06;5049306;28;20175;-69
2021/10/31 06:38:02;;;;;;;18.38;13.48;;;;;;;10.32;93.04;101189.31;5052320;28;20525;-69
2021/10/31 06:40:28;;;;;;;18.38;13.15;;;;;;;10.45;92.20;101190.84;5052172;28;20041;-68
2021/10/31 06:42:53;;;;;;;17.25;13.25;;;;;;;10.51;91.95;101199.75;5052190;28;20135;-69
2021/10/31 06:45:20;;;;;;;17.33;14.30;;;;;;;10.64;91.48;101200.34;5052202;28;20120;-69
2021/10/31 06:47:46;;;;;;;18.48;15.60;;;;;;;10.53;90.96;101184.34;5035276;28;20049;-69
2021/10/31 06:50:12;;;;;;;24.35;17.48;;;;;;;10.60;91.23;101206.19;5051859;28;20052;-69
2021/10/31 06:52:38;;;;;;;21.08;15.73;;;;;;;10.50;90.58;101186.78;5051947;28;20032;-69
2021/10/31 06:55:09;;;;;;;21.27;17.02;;;;;;;10.66;90.15;101198.72;5051999;28;20045;-69
2021/10/31 06:57:34;;;;;;;28.52;20.05;;;;;;;10.73;90.46;101195.66;5051809;28;20036;-69
2021/10/31 07:00:00;;;;;;;27.20;21.35;;;;;;;10.72;90.38;101193.00;5036893;28;20041;-69
2021/10/31 07:02:25;;;;;;;26.90;19.08;;;;;;;10.74;90.13;101202.59;5031736;28;20033;-69
2021/10/31 07:04:52;;;;;;;26.75;19.00;;;;;;;10.79;90.99;101206.28;5032068;28;20042;-69
2021/10/31 07:07:18;;;;;;;27.15;18.90;;;;;;;10.90;90.42;101205.88;5064805;28;20033;-69
2021/10/31 07:09:44;;;;;;;26.55;19.42;;;;;;;10.93;90.86;101198.25;5074259;28;20454;-69
2021/10/31 07:12:09;;;;;;;23.52;18.42;;;;;;;10.55;90.85;101118.16;5074143;28;20072;-69
2021/10/31 07:14:35;;;;;;;22.80;18.02;;;;;;;10.49;90.91;101117.88;5073875;28;20028;-69
2021/10/31 07:17:00;;;;;;;26.88;18.75;;;;;;;10.91;91.97;101197.34;5074226;28;20071;-69
2021/10/31 07:19:26;;;;;;;25.27;20.40;;;;;;;10.91;91.28;101208.53;5073763;28;20111;-69
2021/10/31 07:21:52;;;;;;;26.60;21.05;;;;;;;10.95;90.50;101205.31;5073507;28;20029;-69
2021/10/31 07:24:17;;;;;;;26.23;16.77;;;;;;;10.99;90.82;101202.03;5073860;28;20089;-70
2021/10/31 07:26:43;;;;;;;23.38;15.63;;;;;;;10.92;91.41;101204.28;5073779;28;20032;-69
2021/10/31 07:29:09;;;;;;;17.90;12.93;;;;;;;10.41;90.66;101114.94;5073681;28;20078;-69
2021/10/31 07:31:36;;;;;;;16.95;13.13;;;;;;;10.90;89.64;101204.19;5073678;28;20033;-69
2021/10/31 07:34:03;;;;;;;21.35;13.77;;;;;;;10.75;90.09;101165.59;5073340;28;20391;-69
2021/10/31 07:36:29;;;;;;;16.40;13.40;;;;;;;10.91;88.93;101195.63;5073232;28;20028;-69
2021/10/31 07:38:56;;;;;;;20.88;13.13;;;;;;;10.83;90.08;101177.19;5073680;28;20109;-69
2021/10/31 07:41:22;;;;;;;17.42;13.65;;;;;;;10.90;90.22;101183.50;5055892;28;20090;-69
2021/10/31 07:43:48;;;;;;;20.20;14.05;;;;;;;10.97;89.33;101188.16;5055396;28;20071;-69
2021/10/31 07:46:13;;;;;;;21.80;16.02;;;;;;;11.01;89.79;101189.19;5072800;28;20049;-69
2021/10/31 07:48:39;;;;;;;17.83;13.88;;;;;;;11.07;89.39;101189.47;5073048;28;20044;-69
2021/10/31 07:51:04;;;;;;;19.33;14.75;;;;;;;11.11;89.11;101187.91;5037682;28;20053;-69
2021/10/31 07:53:30;;;;;;;16.58;12.43;;;;;;;11.17;90.14;101194.25;5073420;28;20028;-69
2021/10/31 07:55:56;;;;;;;17.70;11.65;;;;;;;11.15;89.21;101192.41;5073172;28;20078;-69
2021/10/31 07:58:24;;;;;;;15.18;12.00;;;;;;;10.82;91.34;101166.78;5073590;28;20020;-69
2021/10/31 08:00:50;;;;;;;18.52;12.80;;;;;;;10.62;91.86;101148.63;5073002;28;20061;-70
2021/10/31 08:03:18;;;;;;;18.92;12.93;;;;;;;10.64;92.84;101140.97;5073139;28;20397;-69
2021/10/31 08:05:44;;;;;;;18.00;12.77;;;;;;;10.40;93.20;101097.66;5072824;28;20394;-69
2021/10/31 08:08:12;;;;;;;16.98;12.38;;;;;;;10.92;91.69;101175.84;5073529;28;20028;-69
2021/10/31 08:10:37;;;;;;;22.90;14.27;;;;;;;10.86;92.96;101185.91;5072779;28;20024;-70
2021/10/31 08:13:03;;;;;;;20.52;12.65;;;;;;;10.76;91.48;101185.44;5072793;28;20379;-69
2021/10/31 08:15:29;;;;;;;14.95;10.25;;;;;;;10.65;90.37;101166.88;5072707;28;20027;-70
2021/10/31 08:17:55;;;;;;;14.88;9.93;;;;;;;10.47;90.20;101098.88;5072732;28;20554;-70
2021/10/31 08:20:20;;;;;;;14.85;10.57;;;;;;;10.44;90.05;101099.63;5072407;28;20024;-70
2021/10/31 08:22:46;;;;;;;14.20;10.40;;;;;;;10.95;90.00;101168.22;5054947;28;20482;-70
2021/10/31 08:25:12;;;;;;;14.30;10.90;;;;;;;11.07;91.53;101165.34;5072520;28;20043;-69
2021/10/31 08:27:38;;;;;;;14.52;9.65;;;;;;;11.19;89.18;101165.91;5037083;28;20040;-68
2021/10/31 08:30:05;;;;;;;14.57;10.98;;;;;;;11.28;88.67;101161.16;5072615;28;20043;-69
2021/10/31 08:32:38;;;;;;;14.80;10.88;;;;;;;11.34;88.00;101168.31;5072371;28;20024;-69
2021/10/31 08:35:04;;;;;;;27.60;16.85;;;;;;;11.43;88.37;101168.69;5072099;28;20027;-68
2021/10/31 08:37:30;;;;;;;15.88;11.55;;;;;;;11.05;87.50;101090.31;5072333;28;20025;-69
2021/10/31 08:39:55;;;;;;;16.10;10.55;;;;;;;11.65;86.92;101164.47;5072392;28;20024;-70
2021/10/31 08:42:21;;;;;;;13.00;10.15;;;;;;;11.35;86.28;101095.09;5072038;28;20021;-70
2021/10/31 08:44:46;;;;;;;16.27;11.38;;;;;;;11.79;86.26;101160.78;5069074;28;20118;-68
2021/10/31 08:47:12;;;;;;;14.15;10.63;;;;;;;11.91;84.66;101160.44;5065446;28;20079;-68
2021/10/31 08:49:37;;;;;;;16.10;9.90;;;;;;;11.99;84.90;101153.03;5062845;28;20110;-68
2021/10/31 08:52:07;;;;;;;13.75;10.15;;;;;;;11.92;85.56;101130.28;5060856;28;20033;-70
2021/10/31 08:54:37;;;;;;;17.85;10.70;;;;;;;12.00;85.79;101130.63;5053278;28;20032;-69
2021/10/31 08:57:04;;;;;;;17.45;11.50;;;;;;;12.15;85.89;101146.81;5061941;28;20033;-70
2021/10/31 08:59:30;;;;;;;15.85;10.35;;;;;;;12.30;85.62;101146.53;5060198;28;20021;-68
2021/10/31 09:01:56;;;;;;;16.88;12.05;;;;;;;12.41;84.95;101146.97;5061603;28;20024;-70
2021/10/31 09:04:21;;;;;;;16.08;11.20;;;;;;;12.23;86.69;101110.88;5062513;28;20025;-70
2021/10/31 09:06:46;;;;;;;17.20;10.35;;;;;;;12.52;83.64;101145.69;5060378;28;20044;-69
2021/10/31 09:09:13;;;;;;;19.58;11.65;;;;;;;12.60;85.00;101146.00;5061539;28;20020;-70
2021/10/31 09:11:38;;;;;;;18.00;11.63;;;;;;;12.70;86.04;101153.31;5050615;28;20059;-69
2021/10/31 09:14:04;;;;;;;15.13;10.88;;;;;;;12.72;85.26;101138.72;5062593;28;20056;-70
2021/10/31 09:16:29;;;;;;;15.10;11.38;;;;;;;12.62;84.70;101116.75;5060985;28;20032;-69
2021/10/31 09:18:55;;;;;;;16.50;10.65;;;;;;;12.75;83.89;101136.22;5062000;28;20024;-69
2021/10/31 09:21:23;;;;;;;16.27;10.40;;;;;;;12.73;85.75;101124.03;5059938;28;20021;-69
2021/10/31 09:23:49;;;;;;;18.42;13.35;;;;;;;12.81;86.04;101134.69;5043304;28;20395;-69
2021/10/31 09:26:15;;;;;;;17.25;11.45;;;;;;;12.76;85.70;101126.75;5061438;28;20086;-69
2021/10/31 09:28:41;;;;;;;16.60;11.90;;;;;;;12.70;86.64;101124.81;5063201;28;20032;-69
2021/10/31 09:31:06;;;;;;;20.15;12.75;;;;;;;12.57;86.98;101092.38;5062231;28;20041;-69
2021/10/31 09:33:34;;;;;;;14.70;11.32;;;;;;;12.74;87.73;101118.91;5061437;28;20028;-69
2021/10/31 09:35:59;;;;;;;15.30;11.57;;;;;;;12.73;86.98;101117.13;5061756;28;20033;-69
2021/10/31 09:38:28;;;;;;;15.63;11.45;;;;;;;12.37;87.09;101047.56;5060038;28;20025;-69
2021/10/31 09:40:54;;;;;;;18.05;12.13;;;;;;;12.74;87.36;101108.56;5061008;28;20513;-68
2021/10/31 09:43:23;;;;;;;20.02;11.43;;;;;;;12.70;87.85;101090.25;5061440;28;20548;-69
2021/10/31 09:45:48;;;;;;;18.48;14.00;;;;;;;12.76;87.58;101106.91;5059706;28;20509;-69
2021/10/31 09:48:16;;;;;;;30.90;20.13;;;;;;;12.75;88.43;101091.31;5060535;28;20041;-68
2021/10/31 09:50:51;;;;;;;28.83;15.68;;;;;;;12.81;87.55;101095.84;5061520;28;20490;-69
2021/10/31 09:53:21;;;;;;;18.33;12.73;;;;;;;12.87;88.49;101096.97;5061011;28;20141;-68
2021/10/31 09:55:49;;;;;;;17.42;10.18;;;;;;;12.79;87.85;101090.59;5059165;28;20688;-68
2021/10/31 09:58:19;;;;;;;22.75;17.70;;;;;;;12.57;88.42;101055.22;5027530;28;20127;-69
2021/10/31 10:00:48;;;;;;;19.35;13.27;;;;;;;12.82;88.30;101084.66;5063745;28;20028;-69
2021/10/31 10:06:21;;;;;;;27.60;15.82;;;;;;;12.95;88.63;101085.16;5066175;28;20036;-69
2021/10/31 10:09:10;;;;;;;20.40;12.15;;;;;;;12.93;87.80;101078.16;5045286;28;20060;-68
2021/10/31 10:11:39;;;;;;;19.38;14.00;;;;;;;12.57;88.35;101009.50;5064826;28;20055;-69
2021/10/31 10:14:11;;;;;;;17.73;11.98;;;;;;;12.92;87.59;101068.59;5065736;28;20134;-69
2021/10/31 10:16:36;;;;;;;28.25;14.73;;;;;;;12.66;88.16;101029.69;5064329;28;20029;-68
2021/10/31 10:19:23;;;;;;;21.33;14.02;;;;;;;12.89;88.71;101058.16;5064267;28;20043;-67
2021/10/31 10:21:54;;;;;;;20.00;13.43;;;;;;;13.02;88.19;101065.56;5065922;28;20021;-68
2021/10/31 10:24:22;;;;;;;29.45;17.73;;;;;;;13.00;87.48;101059.41;5064554;28;20039;-67
2021/10/31 10:26:49;;;;;;;46.47;28.40;;;;;;;13.06;87.94;101056.16;5012923;28;20037;-68
2021/10/31 10:29:23;;;;;;;23.38;13.43;;;;;;;13.01;87.95;101053.41;5066253;28;20017;-68
2021/10/31 10:31:55;;;;;;;21.85;15.02;;;;;;;12.95;87.74;101048.00;5058745;28;20021;-70
2021/10/31 10:34:36;;;;;;;17.45;11.90;;;;;;;12.98;87.72;101045.50;5064174;28;20514;-69
2021/10/31 10:37:22;;;;;;;19.30;13.23;;;;;;;12.98;88.75;101044.63;5058946;28;20061;-69
2021/10/31 10:39:51;;;;;;;16.73;11.98;;;;;;;12.96;87.50;101026.44;5064776;28;20025;-72
2021/10/31 10:42:27;;;;;;;;;;;;;;;13.08;87.15;101037.25;5058889;28;20347;-68
2021/10/31 10:45:02;;;;;;;33.30;16.50;;;;;;;12.66;87.29;100953.66;5054373;28;19909;-68
2021/10/31 10:47:28;;;;;;;28.10;16.85;;;;;;;12.80;87.02;100965.41;5036508;28;20053;-68
2021/10/31 10:49:56;;;;;;;32.20;19.25;;;;;;;13.05;86.63;101018.13;5054133;28;20029;-68
2021/10/31 10:52:26;;;;;;;55.08;28.65;;;;;;;13.14;86.60;101027.94;5053615;28;20035;-69
2021/10/31 10:54:56;;;;;;;54.40;30.60;;;;;;;13.11;86.31;101021.81;5054016;28;20023;-68
2021/10/31 10:57:24;;;;;;;33.88;19.63;;;;;;;12.77;86.39;100963.59;5057611;28;20049;-68
2021/10/31 10:59:52;;;;;;;22.42;12.95;;;;;;;12.99;86.89;100992.84;5071390;28;20028;-67
2021/10/31 11:02:19;;;;;;;20.70;12.18;;;;;;;13.06;87.55;100993.94;5065354;28;20028;-68
2021/10/31 11:04:46;;;;;;;22.45;11.27;;;;;;;13.04;86.83;100996.47;5033041;28;20035;-68
2021/10/31 11:07:13;;;;;;;18.75;12.40;;;;;;;13.13;86.98;101000.25;5071784;28;20078;-69
2021/10/31 11:09:47;;;;;;;20.08;10.90;;;;;;;12.79;86.54;100928.22;5071155;28;20482;-67
2021/10/31 11:12:33;;;;;;;18.05;10.02;;;;;;;13.18;86.12;100991.78;5070734;28;20470;-71
2021/10/31 11:15:13;;;;;;;30.75;19.98;;;;;;;13.22;87.10;100995.34;5070193;28;20029;-69
2021/10/31 11:17:40;;;;;;;25.30;17.20;;;;;;;13.18;87.02;100972.75;5052092;28;20024;-69
2021/10/31 11:20:08;;;;;;;19.77;12.57;;;;;;;13.25;86.62;100987.69;5071533;28;20043;-67
2021/10/31 11:22:34;;;;;;;15.07;10.63;;;;;;;13.21;86.19;100975.47;5070678;28;20409;-70
2021/10/31 11:25:01;;;;;;;16.40;10.55;;;;;;;13.36;86.14;100988.94;5071206;28;20029;-68